createdAt,value
2023-01-13T00:00:25.186Z,40.9
2023-01-13T00:05:25.154Z,33.7
2023-01-13T00:10:25.152Z,41.2
2023-01-13T00:15:25.166Z,30.6
2023-01-13T00:20:25.156Z,32.1
2023-01-13T00:25:25.150Z,31
2023-01-13T00:30:25.149Z,38
2023-01-13T00:35:25.150Z,38
2023-01-13T00:40:25.155Z,32.1
2023-01-13T00:45:25.163Z,30.1
2023-01-13T00:50:25.155Z,33.9
2023-01-13T00:55:25.159Z,44.8
2023-01-13T01:00:25.143Z,32.8
2023-01-13T01:05:25.158Z,33.9
2023-01-13T01:10:25.153Z,37.7
2023-01-13T01:15:25.170Z,29.2
2023-01-13T01:20:25.162Z,35
2023-01-13T01:25:25.154Z,31
2023-01-13T01:30:25.151Z,23.1
2023-01-13T01:35:25.159Z,28.5
2023-01-13T01:40:25.162Z,32.6
2023-01-13T01:45:25.157Z,28.5
2023-01-13T01:50:25.157Z,29.7
2023-01-13T01:55:25.159Z,35.9
2023-01-13T02:00:25.154Z,35.4
2023-01-13T02:05:25.179Z,34.3
2023-01-13T02:10:25.159Z,37.7
2023-01-13T02:15:25.157Z,28.5
2023-01-13T02:20:25.155Z,35.7
2023-01-13T02:25:25.160Z,35.4
2023-01-13T02:30:25.148Z,44.4
2023-01-13T02:35:25.155Z,41.6
2023-01-13T02:40:25.146Z,41.2
2023-01-13T02:45:25.172Z,41.6
2023-01-13T02:50:25.149Z,38
2023-01-13T02:55:25.167Z,55.1
2023-01-13T03:00:25.092Z,32.8
2023-01-13T03:05:25.110Z,40.9
2023-01-13T03:10:25.117Z,50.2
2023-01-13T03:15:25.095Z,42.3
2023-01-13T03:20:25.097Z,40.9
2023-01-13T03:25:25.095Z,45.2
2023-01-13T03:30:25.135Z,35.7
2023-01-13T03:35:25.096Z,46.9
2023-01-13T03:40:25.088Z,45.6
2023-01-13T03:45:25.097Z,47.3
2023-01-13T03:50:25.100Z,38.8
2023-01-13T03:55:25.091Z,40.3
2023-01-13T04:00:25.117Z,44.8
2023-01-13T04:05:25.091Z,37.4
2023-01-13T04:10:25.097Z,37.7
2023-01-13T04:15:25.176Z,33.4
2023-01-13T04:20:25.092Z,37.7
2023-01-13T04:25:25.091Z,40.6
2023-01-13T04:30:25.096Z,34.3
2023-01-13T04:35:25.109Z,32.1
2023-01-13T04:40:25.099Z,31.7
2023-01-13T04:45:25.098Z,32.1
2023-01-13T04:50:25.107Z,36.4
2023-01-13T04:55:25.110Z,31.9
2023-01-13T05:00:25.101Z,32.6
2023-01-13T05:05:25.111Z,35
2023-01-13T05:10:25.108Z,28.5
2023-01-13T05:15:25.117Z,35.9
2023-01-13T05:20:25.106Z,35.7
2023-01-13T05:25:25.214Z,40.6
2023-01-13T05:30:25.131Z,38.5
2023-01-13T05:35:25.143Z,35.7
2023-01-13T05:40:25.121Z,41.2
2023-01-13T05:45:25.120Z,37.4
2023-01-13T05:50:25.115Z,37.2
2023-01-13T05:55:25.123Z,34.7
2023-01-13T06:00:25.101Z,40
2023-01-13T06:05:25.125Z,38.5
2023-01-13T06:10:25.126Z,47.3
2023-01-13T06:15:25.111Z,39.4
2023-01-13T06:20:25.095Z,36.1
2023-01-13T06:25:25.097Z,35.2
2023-01-13T06:30:25.094Z,35.2
2023-01-13T06:35:25.107Z,36.6
2023-01-13T06:40:25.100Z,43
2023-01-13T06:45:25.113Z,43
2023-01-13T06:50:25.095Z,35.4
2023-01-13T06:55:25.108Z,31
2023-01-13T07:00:25.094Z,27.6
2023-01-13T07:05:25.097Z,23.1
2023-01-13T07:10:25.094Z,35
2023-01-13T07:15:25.100Z,34.5
2023-01-13T07:20:25.099Z,29.4
2023-01-13T07:25:25.119Z,31.9
2023-01-13T07:30:25.094Z,30
2023-01-13T07:35:25.112Z,34.3
2023-01-13T07:40:25.093Z,36.9
2023-01-13T07:45:25.115Z,38
2023-01-13T07:50:25.103Z,36.6
2023-01-13T07:55:25.098Z,36.4
2023-01-13T08:00:25.086Z,31
2023-01-13T08:05:25.113Z,28.6
2023-01-13T08:10:25.095Z,27.2
2023-01-13T08:15:25.125Z,17.5
2023-01-13T08:20:25.096Z,22.9
2023-01-13T08:25:25.099Z,20
2023-01-13T08:30:25.234Z,24
2023-01-13T08:35:25.095Z,25
2023-01-13T08:40:25.121Z,19.7
2023-01-13T08:45:25.100Z,21.9
2023-01-13T08:50:25.173Z,19.5
2023-01-13T08:55:25.101Z,20
2023-01-13T09:00:25.092Z,26
2023-01-13T09:05:25.096Z,18.1
2023-01-13T09:10:25.101Z,28.2
2023-01-13T09:15:25.088Z,32.3
2023-01-13T09:20:25.092Z,25.9
2023-01-13T09:25:25.090Z,18.4
2023-01-13T09:30:25.142Z,20.8
2023-01-13T09:35:25.100Z,20.4
2023-01-13T09:40:25.095Z,16.3
2023-01-13T09:45:25.101Z,18.4
2023-01-13T09:50:25.095Z,23.7
2023-01-13T09:55:25.099Z,26.3
2023-01-13T10:00:25.091Z,31.5
2023-01-13T10:05:25.099Z,36.1
2023-01-13T10:10:25.085Z,25.1
2023-01-13T10:15:25.089Z,28.3
2023-01-13T10:20:25.091Z,25.9
2023-01-13T10:25:25.108Z,32.1
2023-01-13T10:30:25.094Z,30.6
2023-01-13T10:35:25.096Z,28.2
2023-01-13T10:40:25.087Z,23.8
2023-01-13T10:45:25.103Z,24.7
2023-01-13T10:50:25.089Z,31
2023-01-13T10:55:25.108Z,24.3
2023-01-13T11:00:25.087Z,28.9
2023-01-13T11:05:25.113Z,32.5
2023-01-13T11:10:25.106Z,25.3
2023-01-13T11:15:25.108Z,33.7
2023-01-13T11:20:25.091Z,26.3
2023-01-13T11:25:25.099Z,24.4
2023-01-13T11:30:25.103Z,27.2
2023-01-13T11:35:25.090Z,18.7
2023-01-13T11:40:25.086Z,20.4
2023-01-13T11:45:25.105Z,29.2
2023-01-13T11:50:25.092Z,25.3
2023-01-13T11:55:25.105Z,26.1
2023-01-13T12:00:25.090Z,19.6
2023-01-13T12:05:25.109Z,29.2
2023-01-13T12:10:25.090Z,24.7
2023-01-13T12:15:25.087Z,22.9
2023-01-13T12:20:25.096Z,34.5
2023-01-13T12:25:25.103Z,34.3
2023-01-13T12:30:25.092Z,33.2
2023-01-13T12:35:25.097Z,39.4
2023-01-13T12:40:25.094Z,33.2
2023-01-13T12:45:25.089Z,35.7
2023-01-13T12:50:25.088Z,22.3
2023-01-13T12:55:25.102Z,28.2
2023-01-13T13:00:25.088Z,31.9
2023-01-13T13:05:25.124Z,37.4
2023-01-13T13:10:25.098Z,34.5
2023-01-13T13:15:25.100Z,32.3
2023-01-13T13:20:25.099Z,43.7
2023-01-13T13:25:25.094Z,39.1
2023-01-13T13:30:25.095Z,34.7
2023-01-13T13:35:25.090Z,40
2023-01-13T13:40:25.089Z,33
2023-01-13T13:45:25.101Z,37.2
2023-01-13T13:50:25.084Z,19.2
2023-01-13T13:55:25.097Z,23.4
2023-01-13T14:00:25.092Z,31.5
2023-01-13T14:05:25.089Z,30.8
2023-01-13T14:10:25.070Z,28.8
2023-01-13T14:15:25.045Z,24.5
2023-01-13T14:20:25.054Z,33.7
2023-01-13T14:25:25.041Z,32.5
2023-01-13T14:30:25.036Z,30.1
2023-01-13T14:35:25.051Z,35
2023-01-13T14:40:25.021Z,31.2
2023-01-13T14:45:25.024Z,29.7
2023-01-13T14:50:26.657Z,33.9
2023-01-13T14:55:25.031Z,37.4
2023-01-13T15:00:25.021Z,26.1
2023-01-13T15:05:25.011Z,29.4
2023-01-13T15:10:25.013Z,29.7
2023-01-13T15:15:25.019Z,28.8
2023-01-13T15:20:25.033Z,32.5
2023-01-13T15:25:25.021Z,41.2
2023-01-13T15:30:25.070Z,28.8
2023-01-13T15:35:25.343Z,39.4
2023-01-13T15:40:25.017Z,43.7
2023-01-13T15:45:25.019Z,34.7
2023-01-13T15:50:25.015Z,36.6
2023-01-13T15:55:25.022Z,32.6
2023-01-13T16:00:25.010Z,38.5
2023-01-13T16:05:25.021Z,35.4
2023-01-13T16:10:25.022Z,31.2
2023-01-13T16:15:25.037Z,33.4
2023-01-13T16:20:25.032Z,30.6
2023-01-13T16:25:25.054Z,40.6
2023-01-13T16:30:25.053Z,49.2
2023-01-13T16:35:25.075Z,31.3
2023-01-13T16:40:25.075Z,36.9
2023-01-13T16:45:25.133Z,37.4
2023-01-13T16:50:25.088Z,39.7
2023-01-13T16:55:25.094Z,32.5
2023-01-13T17:00:25.088Z,40.6
2023-01-13T17:05:25.098Z,26.6
2023-01-13T17:10:25.101Z,36.1
2023-01-13T17:15:25.103Z,46.5
2023-01-13T17:20:25.093Z,32.6
2023-01-13T17:25:25.098Z,27.8
2023-01-13T17:30:25.105Z,27.4
2023-01-13T17:35:25.427Z,29.4
2023-01-13T17:40:25.088Z,23.9
2023-01-13T17:45:25.098Z,24.9
2023-01-13T17:50:25.086Z,19.7
2023-01-13T17:55:25.093Z,20.3
2023-01-13T18:00:25.081Z,22.2
2023-01-13T18:05:25.087Z,21.3
2023-01-13T18:10:25.089Z,21.3
2023-01-13T18:15:25.082Z,22.2
2023-01-13T18:20:25.083Z,28
2023-01-13T18:25:25.289Z,31.3
2023-01-13T18:30:25.157Z,31
2023-01-13T18:35:25.091Z,38.2
2023-01-13T18:40:25.088Z,32.1
2023-01-13T18:45:25.123Z,31.5
2023-01-13T18:50:25.103Z,40.3
2023-01-13T18:55:25.114Z,34.1
2023-01-13T19:00:25.092Z,35
2023-01-13T19:05:25.089Z,31.5
2023-01-13T19:10:25.095Z,25.1
2023-01-13T19:15:25.092Z,24.8
2023-01-13T19:20:25.097Z,29.1
2023-01-13T19:25:25.095Z,36.4
2023-01-13T19:30:25.137Z,30.5
2023-01-13T19:35:25.089Z,37.7
2023-01-13T19:40:25.097Z,30
2023-01-13T19:45:25.094Z,33.9
2023-01-13T19:50:25.090Z,22.1
2023-01-13T19:55:25.104Z,28.6
2023-01-13T20:00:25.087Z,28.6
2023-01-13T20:05:25.103Z,38.5
2023-01-13T20:10:25.092Z,26
2023-01-13T20:15:25.116Z,33.9
2023-01-13T20:20:25.097Z,29.7
2023-01-13T20:25:25.190Z,46
2023-01-13T20:30:25.102Z,35.2
2023-01-13T20:35:25.104Z,35.2
2023-01-13T20:40:25.105Z,25.8
2023-01-13T20:45:25.095Z,35.4
2023-01-13T20:50:25.098Z,33.7
2023-01-13T20:55:25.107Z,28
2023-01-13T21:00:25.106Z,32.3
2023-01-13T21:05:25.106Z,28.5
2023-01-13T21:10:25.103Z,28.2
2023-01-13T21:15:25.109Z,26
2023-01-13T21:20:25.109Z,33.4
2023-01-13T21:25:25.100Z,21.5
2023-01-13T21:30:25.100Z,28.6
2023-01-13T21:35:25.093Z,44.4
2023-01-13T21:40:25.090Z,31.2
2023-01-13T21:45:25.097Z,36.4
2023-01-13T21:50:25.096Z,30
2023-01-13T21:55:25.135Z,39.7
2023-01-13T22:00:25.089Z,34.7
2023-01-13T22:05:25.096Z,35
2023-01-13T22:10:25.099Z,34.1
2023-01-13T22:15:25.098Z,31.9
2023-01-13T22:20:25.091Z,33
2023-01-13T22:25:25.099Z,29.2
2023-01-13T22:30:25.142Z,31.3
2023-01-13T22:35:25.102Z,27.9
2023-01-13T22:40:25.095Z,22.7
2023-01-13T22:45:25.108Z,31.7
2023-01-13T22:50:25.089Z,24.5
2023-01-13T22:55:25.101Z,26.5
2023-01-13T23:00:25.106Z,18.8
2023-01-13T23:05:25.098Z,21
2023-01-13T23:10:25.091Z,21
2023-01-13T23:15:25.095Z,17
2023-01-13T23:20:25.099Z,16.8
2023-01-13T23:25:25.103Z,25.8
2023-01-13T23:30:25.083Z,23.9
2023-01-13T23:35:25.097Z,23.2
2023-01-13T23:40:25.107Z,20.9
2023-01-13T23:45:25.099Z,22.3
2023-01-13T23:50:25.122Z,20.4
2023-01-13T23:55:25.109Z,32.3
